Airfield :







YOU CAN JOIN US ON...

 
LOGIN :

Register | Disclaimer

   EN    FR    IT 

 









Legend :    VFR   Marginal VFR   IFR   Intensive IFR   Very Intensive IFR
Visi :
Ceiling :
>= 8 km
>= 3000ft
5 to 8 km
1000 to 3000 ft
1500m to 5 km
500 to 1000 ft
800 to 1500m
200 to 500 ft
< 800m
< 200 ft
Symbols :   Thunderstorms  Fog  Heavy snow  Heavy precipitations  Wind > 20 kt







- Airport Elevation : 454 ft


KIZG - Eastern Slopes Regional

CURRENT METAR :
  • 260244Z AUTO 00000KT 3/4SM BR VV002 10/09 A3035 RMK AO2 VIS 1/4V5 T01000089

EXPIRED METARs :
  • 260154Z AUTO 00000KT 10SM CLR 11/10 A3035 RMK AO2 SLP278 T01060100
  • 260054Z AUTO 00000KT 10SM CLR 12/11 A3034 RMK AO2 SLP276 T01170106
  • 252354Z AUTO 13003KT 10SM CLR 15/11 A3032 RMK AO2 SLP268 T01500106 10233 20139 53002

TAF N/A
No reported NOTAMs for that airfield.



MET'MAP, your aeronautical weather chart ! - Copyright ORBIFLY December 2007 - Disclaimer

ORBIFLY MET'MAP TEAM :

Programming & Development : Alexandra Zaïnal
Concept & Development : Baudouin d'Aumeries
Co-Development & Prog : Marc-Olivier Méhu
Technical & hardware support : Manuel Goepfert

Contact : metmap@orbifly.com




SOURCES & CREDITS :

   NOAA